DLH476 EDDM-CYVR
Flight info
| Callsign | DLH476 |
|---|---|
| Flight time | N/A |
| Altitude | 36000 |
| Route | GIVMI6Q/08L GIVMI Y101 TALAL T159 PETIX DCT MASEK L604 BIGGE T281 HMM L602 RKN DCT LONAM DCT AKIVO DCT 60N010W/N0487F370 DCT ATSIX/M085F360 DCT 62N020W/M085F380 64N030W 63N040W 61N050W DCT SAVRY/N0488F380 DCT RODBO DCT YPX/N0494F400 DCT 60N080W 59N090W DCT MITOB DCT PETMA DCT EXDEE DCT MERYT DCT BOOTH CANUC6 |
| Aircraft | A359/H-SADE2E3GHIJ1J2J3J4J5M1P2RWXYZ/LB1D1 |
Departure
| Time | N/A |
|---|---|
| Airport | Munich Airport (EDDM) |
Arrival
| Time | 2026-05-03 21:50 |
|---|---|
| Airport | Vancouver International Airport (CYVR) |
| Time | Latitude | Longitude | Altitude | Speed | Heading |
|---|---|---|---|---|---|
| 2026-05-03 20:15 | 55.84730 | -106.91409 | 35721 ft | 512 kts | 247° |
| 2026-05-03 20:15 | 55.81460 | -107.02652 | 35730 ft | 511 kts | 247° |
| 2026-05-03 20:16 | 55.78185 | -107.13863 | 35737 ft | 511 kts | 247° |
| 2026-05-03 20:16 | 55.74889 | -107.25087 | 35745 ft | 511 kts | 247° |
| 2026-05-03 20:17 | 55.71592 | -107.36263 | 35760 ft | 511 kts | 246° |
| 2026-05-03 20:17 | 55.68308 | -107.47344 | 35762 ft | 511 kts | 246° |
| 2026-05-03 20:18 | 55.64993 | -107.58473 | 35758 ft | 510 kts | 246° |
| 2026-05-03 20:18 | 55.61667 | -107.69589 | 35765 ft | 510 kts | 246° |
| 2026-05-03 20:19 | 55.58338 | -107.80663 | 35767 ft | 510 kts | 246° |
| 2026-05-03 20:19 | 55.54995 | -107.91730 | 35769 ft | 510 kts | 246° |
| 2026-05-03 20:20 | 55.51648 | -108.02757 | 35769 ft | 509 kts | 246° |
| 2026-05-03 20:20 | 55.48315 | -108.13689 | 35773 ft | 509 kts | 246° |
| 2026-05-03 20:21 | 55.44955 | -108.24659 | 35772 ft | 508 kts | 246° |
| 2026-05-03 20:21 | 55.41588 | -108.35600 | 35775 ft | 508 kts | 246° |
| 2026-05-03 20:22 | 55.38214 | -108.46515 | 35789 ft | 507 kts | 246° |
| 2026-05-03 20:22 | 55.34833 | -108.57402 | 35789 ft | 507 kts | 246° |
| 2026-05-03 20:23 | 55.32020 | -108.66421 | 35774 ft | 506 kts | 246° |
| 2026-05-03 20:23 | 55.28075 | -108.79017 | 35762 ft | 506 kts | 246° |
| 2026-05-03 20:24 | 55.24675 | -108.89818 | 35763 ft | 505 kts | 246° |
| 2026-05-03 20:24 | 55.21847 | -108.98762 | 35760 ft | 505 kts | 246° |
| 2026-05-03 20:25 | 55.18437 | -109.09506 | 35761 ft | 504 kts | 246° |
| 2026-05-03 20:25 | 55.15028 | -109.20201 | 35764 ft | 503 kts | 246° |
| 2026-05-03 20:26 | 55.11608 | -109.30881 | 35769 ft | 503 kts | 246° |
| 2026-05-03 20:26 | 55.08185 | -109.41523 | 35778 ft | 502 kts | 246° |
| 2026-05-03 20:27 | 55.04757 | -109.52133 | 35777 ft | 502 kts | 246° |
| 2026-05-03 20:27 | 55.01320 | -109.62724 | 35773 ft | 501 kts | 246° |
| 2026-05-03 20:28 | 54.97876 | -109.73288 | 35779 ft | 501 kts | 246° |
| 2026-05-03 20:28 | 54.94452 | -109.83749 | 35781 ft | 500 kts | 246° |
| 2026-05-03 20:29 | 54.91001 | -109.94245 | 35789 ft | 500 kts | 246° |
| 2026-05-03 20:29 | 54.87538 | -110.04733 | 35788 ft | 500 kts | 246° |
| 2026-05-03 20:30 | 54.84072 | -110.15184 | 35794 ft | 500 kts | 246° |
| 2026-05-03 20:30 | 54.80596 | -110.25622 | 35790 ft | 499 kts | 246° |
| 2026-05-03 20:31 | 54.77111 | -110.36039 | 35793 ft | 499 kts | 246° |
| 2026-05-03 20:31 | 54.73622 | -110.46425 | 35811 ft | 498 kts | 246° |
| 2026-05-03 20:32 | 54.70129 | -110.56780 | 35811 ft | 498 kts | 246° |
| 2026-05-03 20:32 | 54.66625 | -110.67124 | 35816 ft | 498 kts | 246° |
| 2026-05-03 20:33 | 54.63144 | -110.77358 | 35823 ft | 497 kts | 246° |
| 2026-05-03 20:33 | 54.59634 | -110.87630 | 35831 ft | 497 kts | 247° |
| 2026-05-03 20:34 | 54.56117 | -110.97876 | 35839 ft | 496 kts | 247° |
| 2026-05-03 20:34 | 54.52592 | -111.08103 | 35845 ft | 496 kts | 247° |
| 2026-05-03 20:35 | 54.49057 | -111.18321 | 35852 ft | 496 kts | 247° |
| 2026-05-03 20:35 | 54.45520 | -111.28501 | 35863 ft | 496 kts | 247° |
| 2026-05-03 20:36 | 54.41977 | -111.38655 | 35867 ft | 495 kts | 247° |
| 2026-05-03 20:36 | 54.38428 | -111.48785 | 35872 ft | 495 kts | 248° |
| 2026-05-03 20:37 | 54.34897 | -111.58824 | 35876 ft | 495 kts | 248° |
| 2026-05-03 20:37 | 54.31309 | -111.68983 | 35883 ft | 494 kts | 248° |
| 2026-05-03 20:38 | 54.27763 | -111.78980 | 35879 ft | 494 kts | 248° |
| 2026-05-03 20:38 | 54.24188 | -111.89019 | 35882 ft | 493 kts | 248° |
| 2026-05-03 20:39 | 54.20607 | -111.99035 | 35893 ft | 493 kts | 248° |
| 2026-05-03 20:39 | 54.17041 | -112.08970 | 35895 ft | 492 kts | 248° |
| 2026-05-03 20:40 | 54.13454 | -112.18920 | 35901 ft | 491 kts | 248° |
| 2026-05-03 20:40 | 54.09871 | -112.28819 | 35899 ft | 490 kts | 248° |
| 2026-05-03 20:41 | 54.06286 | -112.38690 | 35895 ft | 489 kts | 248° |
| 2026-05-03 20:41 | 54.02695 | -112.48536 | 35907 ft | 489 kts | 248° |
| 2026-05-03 20:42 | 53.99098 | -112.58358 | 35912 ft | 488 kts | 248° |
| 2026-05-03 20:42 | 53.95535 | -112.68054 | 35907 ft | 487 kts | 248° |
| 2026-05-03 20:43 | 53.91938 | -112.77800 | 35914 ft | 486 kts | 248° |
| 2026-05-03 20:43 | 53.88347 | -112.87495 | 35916 ft | 486 kts | 248° |
| 2026-05-03 20:44 | 53.84746 | -112.97180 | 35919 ft | 485 kts | 248° |
| 2026-05-03 20:44 | 53.81147 | -113.06818 | 35923 ft | 485 kts | 248° |
| 2026-05-03 20:45 | 53.77533 | -113.16463 | 35930 ft | 484 kts | 247° |
| 2026-05-03 20:45 | 53.73924 | -113.26059 | 35927 ft | 484 kts | 247° |
| 2026-05-03 20:46 | 53.70298 | -113.35662 | 35932 ft | 484 kts | 247° |
| 2026-05-03 20:46 | 53.66661 | -113.45249 | 35932 ft | 484 kts | 247° |
| 2026-05-03 20:47 | 53.63028 | -113.54731 | 35925 ft | 487 kts | 245° |
| 2026-05-03 20:47 | 53.59065 | -113.64035 | 35931 ft | 490 kts | 243° |
| 2026-05-03 20:48 | 53.54989 | -113.73242 | 35930 ft | 490 kts | 243° |
| 2026-05-03 20:48 | 53.50938 | -113.82483 | 35931 ft | 491 kts | 243° |
| 2026-05-03 20:49 | 53.46907 | -113.91756 | 35934 ft | 491 kts | 243° |
| 2026-05-03 20:49 | 53.42872 | -114.01033 | 35936 ft | 492 kts | 243° |
| 2026-05-03 20:50 | 53.38820 | -114.10312 | 35926 ft | 494 kts | 243° |
| 2026-05-03 20:50 | 53.34773 | -114.19541 | 35936 ft | 495 kts | 242° |
| 2026-05-03 20:51 | 53.30684 | -114.28826 | 35937 ft | 495 kts | 242° |
| 2026-05-03 20:51 | 53.26579 | -114.38114 | 35936 ft | 496 kts | 242° |
| 2026-05-03 20:52 | 53.22500 | -114.47309 | 35939 ft | 496 kts | 242° |
| 2026-05-03 20:52 | 53.18382 | -114.56559 | 35943 ft | 497 kts | 242° |
| 2026-05-03 20:53 | 53.14258 | -114.65791 | 35937 ft | 497 kts | 242° |
| 2026-05-03 20:53 | 53.10121 | -114.75015 | 35936 ft | 497 kts | 242° |
| 2026-05-03 20:54 | 53.05977 | -114.84224 | 35935 ft | 497 kts | 242° |
| 2026-05-03 20:54 | 52.99750 | -114.97995 | 35927 ft | 497 kts | 241° |
| 2026-05-03 20:55 | 52.95612 | -115.07106 | 35927 ft | 497 kts | 241° |
| 2026-05-03 20:55 | 52.91444 | -115.16253 | 35929 ft | 497 kts | 241° |
| 2026-05-03 20:56 | 52.87275 | -115.25368 | 35924 ft | 497 kts | 240° |
| 2026-05-03 20:56 | 52.83089 | -115.34486 | 35926 ft | 497 kts | 240° |
| 2026-05-03 20:57 | 52.78895 | -115.43586 | 35927 ft | 498 kts | 240° |
| 2026-05-03 20:57 | 52.74691 | -115.52679 | 35925 ft | 498 kts | 240° |
| 2026-05-03 20:58 | 52.70477 | -115.61760 | 35934 ft | 499 kts | 240° |
| 2026-05-03 20:58 | 52.66253 | -115.70832 | 35936 ft | 499 kts | 240° |
| 2026-05-03 20:59 | 52.62016 | -115.79897 | 35944 ft | 500 kts | 239° |
| 2026-05-03 20:59 | 52.57763 | -115.88962 | 35947 ft | 500 kts | 239° |
| 2026-05-03 21:00 | 52.54922 | -115.95002 | 35951 ft | 501 kts | 239° |
| 2026-05-03 21:00 | 52.49233 | -116.07049 | 35963 ft | 501 kts | 239° |
| 2026-05-03 21:01 | 52.44944 | -116.16096 | 35967 ft | 502 kts | 239° |
| 2026-05-03 21:01 | 52.40666 | -116.25090 | 35973 ft | 503 kts | 239° |
| 2026-05-03 21:02 | 52.36357 | -116.34115 | 35995 ft | 503 kts | 239° |
| 2026-05-03 21:02 | 52.32035 | -116.43134 | 36001 ft | 504 kts | 238° |
| 2026-05-03 21:03 | 52.27696 | -116.52149 | 36015 ft | 505 kts | 238° |
| 2026-05-03 21:03 | 52.23347 | -116.61151 | 36029 ft | 505 kts | 238° |
| 2026-05-03 21:04 | 52.18986 | -116.70165 | 36037 ft | 505 kts | 238° |
| 2026-05-03 21:04 | 52.14651 | -116.79096 | 36055 ft | 507 kts | 238° |
| 2026-05-03 21:05 | 52.10263 | -116.88097 | 36053 ft | 507 kts | 238° |
| 2026-05-03 21:05 | 52.05862 | -116.97086 | 36062 ft | 508 kts | 238° |
| 2026-05-03 21:06 | 52.01472 | -117.06020 | 36054 ft | 509 kts | 238° |
| 2026-05-03 21:06 | 51.97022 | -117.15051 | 36052 ft | 509 kts | 237° |
| 2026-05-03 21:07 | 51.92594 | -117.24000 | 36045 ft | 509 kts | 237° |
| 2026-05-03 21:07 | 51.88179 | -117.32893 | 36034 ft | 510 kts | 237° |
| 2026-05-03 21:08 | 51.83728 | -117.41839 | 36030 ft | 511 kts | 237° |
| 2026-05-03 21:08 | 51.79250 | -117.50801 | 36023 ft | 511 kts | 237° |
| 2026-05-03 21:09 | 51.74784 | -117.59753 | 36018 ft | 511 kts | 237° |
| 2026-05-03 21:09 | 51.70536 | -117.68847 | 36017 ft | 510 kts | 239° |
| 2026-05-03 21:10 | 51.66347 | -117.78074 | 36023 ft | 511 kts | 239° |
| 2026-05-03 21:10 | 51.62115 | -117.87299 | 36031 ft | 511 kts | 239° |
| 2026-05-03 21:11 | 51.57882 | -117.96432 | 36024 ft | 512 kts | 239° |
| 2026-05-03 21:11 | 51.53607 | -118.05600 | 36011 ft | 512 kts | 238° |
| 2026-05-03 21:12 | 51.50038 | -118.13222 | 36031 ft | 513 kts | 238° |
| 2026-05-03 21:12 | 51.45715 | -118.22437 | 36016 ft | 514 kts | 238° |
| 2026-05-03 21:13 | 51.41436 | -118.31522 | 36023 ft | 515 kts | 238° |
| 2026-05-03 21:13 | 51.37111 | -118.40673 | 36019 ft | 516 kts | 238° |
| 2026-05-03 21:14 | 51.32774 | -118.49822 | 36022 ft | 516 kts | 238° |
| 2026-05-03 21:14 | 51.28420 | -118.58972 | 36029 ft | 517 kts | 238° |
| 2026-05-03 21:15 | 51.24054 | -118.68129 | 36020 ft | 518 kts | 238° |
| 2026-05-03 21:15 | 51.19667 | -118.77274 | 36026 ft | 519 kts | 238° |
| 2026-05-03 21:16 | 51.15271 | -118.86418 | 36022 ft | 520 kts | 238° |
| 2026-05-03 21:16 | 51.10888 | -118.95495 | 36017 ft | 521 kts | 237° |
| 2026-05-03 21:17 | 51.06459 | -119.04635 | 36010 ft | 522 kts | 237° |
| 2026-05-03 21:17 | 51.02013 | -119.13776 | 36012 ft | 522 kts | 237° |
| 2026-05-03 21:18 | 50.97561 | -119.22906 | 36007 ft | 523 kts | 237° |
| 2026-05-03 21:18 | 50.93081 | -119.32056 | 36011 ft | 524 kts | 237° |
| 2026-05-03 21:19 | 50.88600 | -119.41177 | 36005 ft | 525 kts | 237° |
| 2026-05-03 21:19 | 50.84101 | -119.50302 | 35992 ft | 526 kts | 237° |
| 2026-05-03 21:20 | 50.79591 | -119.59420 | 36000 ft | 527 kts | 237° |
| 2026-05-03 21:20 | 50.77366 | -119.63907 | 35870 ft | 522 kts | 237° |
| 2026-05-03 21:20 | 50.75128 | -119.68404 | 35171 ft | 519 kts | 237° |
| 2026-05-03 21:21 | 50.72900 | -119.72884 | 34656 ft | 523 kts | 236° |
| 2026-05-03 21:21 | 50.70643 | -119.77423 | 34361 ft | 525 kts | 236° |
| 2026-05-03 21:21 | 50.68382 | -119.81956 | 33987 ft | 526 kts | 236° |
| 2026-05-03 21:21 | 50.66110 | -119.86498 | 33470 ft | 527 kts | 236° |
| 2026-05-03 21:22 | 50.63843 | -119.91018 | 32984 ft | 527 kts | 236° |
| 2026-05-03 21:22 | 50.61567 | -119.95546 | 32500 ft | 526 kts | 236° |
| 2026-05-03 21:22 | 50.59298 | -120.00054 | 32011 ft | 526 kts | 235° |
| 2026-05-03 21:22 | 50.57021 | -120.04575 | 31539 ft | 526 kts | 235° |
| 2026-05-03 21:23 | 50.54753 | -120.09070 | 31078 ft | 525 kts | 235° |
| 2026-05-03 21:23 | 50.52483 | -120.13565 | 30631 ft | 525 kts | 234° |
| 2026-05-03 21:23 | 50.50210 | -120.18055 | 30185 ft | 524 kts | 234° |
| 2026-05-03 21:23 | 50.47944 | -120.22519 | 29673 ft | 522 kts | 234° |
| 2026-05-03 21:24 | 50.45684 | -120.26960 | 29146 ft | 520 kts | 234° |
| 2026-05-03 21:24 | 50.43427 | -120.31388 | 28611 ft | 517 kts | 234° |
| 2026-05-03 21:24 | 50.41191 | -120.35768 | 28106 ft | 513 kts | 234° |
| 2026-05-03 21:24 | 50.38969 | -120.40111 | 27583 ft | 509 kts | 234° |
| 2026-05-03 21:25 | 50.36763 | -120.44421 | 27072 ft | 505 kts | 234° |
| 2026-05-03 21:25 | 50.34579 | -120.48682 | 26581 ft | 500 kts | 234° |
| 2026-05-03 21:25 | 50.32403 | -120.52921 | 26072 ft | 497 kts | 234° |
| 2026-05-03 21:25 | 50.30242 | -120.57126 | 25599 ft | 494 kts | 234° |
| 2026-05-03 21:26 | 50.28124 | -120.61243 | 25128 ft | 490 kts | 233° |
| 2026-05-03 21:26 | 50.25985 | -120.65392 | 24653 ft | 487 kts | 233° |
| 2026-05-03 21:26 | 50.23872 | -120.69483 | 24196 ft | 483 kts | 233° |
| 2026-05-03 21:26 | 50.21759 | -120.73569 | 23735 ft | 480 kts | 233° |
| 2026-05-03 21:27 | 50.19668 | -120.77603 | 23233 ft | 477 kts | 233° |
| 2026-05-03 21:27 | 50.17591 | -120.81609 | 22692 ft | 474 kts | 233° |
| 2026-05-03 21:27 | 50.15522 | -120.85596 | 22166 ft | 471 kts | 233° |
| 2026-05-03 21:27 | 50.13463 | -120.89552 | 21638 ft | 467 kts | 233° |
| 2026-05-03 21:28 | 50.11411 | -120.93487 | 21140 ft | 464 kts | 233° |
| 2026-05-03 21:28 | 50.09380 | -120.97370 | 20633 ft | 461 kts | 232° |
| 2026-05-03 21:28 | 50.07365 | -121.01227 | 20141 ft | 458 kts | 233° |
| 2026-05-03 21:28 | 50.05358 | -121.05062 | 19655 ft | 455 kts | 232° |
| 2026-05-03 21:29 | 50.03362 | -121.08857 | 19181 ft | 452 kts | 232° |
| 2026-05-03 21:29 | 50.01384 | -121.12622 | 18729 ft | 448 kts | 232° |
| 2026-05-03 21:29 | 49.99413 | -121.16373 | 18269 ft | 446 kts | 232° |
| 2026-05-03 21:29 | 49.97459 | -121.20089 | 17737 ft | 443 kts | 232° |
| 2026-05-03 21:30 | 49.95540 | -121.23730 | 17219 ft | 440 kts | 232° |
| 2026-05-03 21:30 | 49.93603 | -121.27395 | 16724 ft | 438 kts | 232° |
| 2026-05-03 21:30 | 49.91675 | -121.31040 | 16212 ft | 434 kts | 232° |
| 2026-05-03 21:30 | 49.89771 | -121.34642 | 15746 ft | 430 kts | 232° |
| 2026-05-03 21:31 | 49.87878 | -121.38213 | 15261 ft | 427 kts | 231° |
| 2026-05-03 21:31 | 49.85990 | -121.41763 | 14777 ft | 425 kts | 231° |
| 2026-05-03 21:31 | 49.84114 | -121.45286 | 14307 ft | 423 kts | 231° |
| 2026-05-03 21:31 | 49.82244 | -121.48788 | 13846 ft | 420 kts | 231° |
| 2026-05-03 21:32 | 49.80387 | -121.52264 | 13312 ft | 417 kts | 231° |
| 2026-05-03 21:32 | 49.78548 | -121.55707 | 12845 ft | 413 kts | 231° |
| 2026-05-03 21:32 | 49.76728 | -121.59112 | 12336 ft | 409 kts | 231° |
| 2026-05-03 21:32 | 49.74916 | -121.62491 | 12028 ft | 407 kts | 231° |
| 2026-05-03 21:33 | 49.73110 | -121.65861 | 11961 ft | 406 kts | 231° |
| 2026-05-03 21:33 | 49.71309 | -121.69215 | 11961 ft | 406 kts | 231° |
| 2026-05-03 21:33 | 49.69507 | -121.72570 | 11959 ft | 405 kts | 231° |
| 2026-05-03 21:33 | 49.67710 | -121.75914 | 11959 ft | 405 kts | 231° |
| 2026-05-03 21:34 | 49.65908 | -121.79260 | 11959 ft | 405 kts | 231° |
| 2026-05-03 21:34 | 49.64116 | -121.82581 | 11800 ft | 396 kts | 231° |
| 2026-05-03 21:34 | 49.62369 | -121.85817 | 11204 ft | 390 kts | 231° |
| 2026-05-03 21:34 | 49.60663 | -121.88974 | 10880 ft | 376 kts | 231° |
| 2026-05-03 21:35 | 49.59019 | -121.92011 | 10605 ft | 362 kts | 231° |
| 2026-05-03 21:35 | 49.57432 | -121.94938 | 10346 ft | 349 kts | 231° |
| 2026-05-03 21:35 | 49.55893 | -121.97776 | 9967 ft | 342 kts | 231° |
| 2026-05-03 21:35 | 49.54376 | -122.00572 | 9617 ft | 334 kts | 231° |
| 2026-05-03 21:36 | 49.52923 | -122.03255 | 9362 ft | 321 kts | 231° |
| 2026-05-03 21:36 | 49.51634 | -122.05997 | 9245 ft | 310 kts | 238° |
| 2026-05-03 21:36 | 49.50522 | -122.08717 | 9061 ft | 299 kts | 239° |
| 2026-05-03 21:36 | 49.49450 | -122.11403 | 8968 ft | 293 kts | 239° |
| 2026-05-03 21:37 | 49.48389 | -122.14062 | 8967 ft | 287 kts | 239° |
| 2026-05-03 21:37 | 49.47367 | -122.16608 | 8971 ft | 274 kts | 239° |
| 2026-05-03 21:37 | 49.46378 | -122.19092 | 8961 ft | 270 kts | 240° |
| 2026-05-03 21:37 | 49.45403 | -122.21564 | 8986 ft | 271 kts | 240° |
| 2026-05-03 21:38 | 49.44420 | -122.24042 | 8977 ft | 272 kts | 239° |
| 2026-05-03 21:38 | 49.43438 | -122.26522 | 8979 ft | 272 kts | 239° |
| 2026-05-03 21:38 | 49.42452 | -122.29011 | 8993 ft | 272 kts | 239° |
| 2026-05-03 21:38 | 49.41468 | -122.31486 | 8976 ft | 272 kts | 239° |
| 2026-05-03 21:39 | 49.40473 | -122.33965 | 8971 ft | 272 kts | 238° |
| 2026-05-03 21:39 | 49.39315 | -122.36279 | 8995 ft | 274 kts | 230° |
| 2026-05-03 21:39 | 49.38054 | -122.38441 | 8744 ft | 270 kts | 228° |
| 2026-05-03 21:39 | 49.36814 | -122.40563 | 8382 ft | 270 kts | 229° |
| 2026-05-03 21:40 | 49.35574 | -122.42721 | 8043 ft | 269 kts | 229° |
| 2026-05-03 21:40 | 49.34335 | -122.44877 | 7692 ft | 268 kts | 228° |
| 2026-05-03 21:40 | 49.33095 | -122.46990 | 7371 ft | 266 kts | 228° |
| 2026-05-03 21:40 | 49.31856 | -122.49092 | 7077 ft | 264 kts | 227° |
| 2026-05-03 21:41 | 49.30628 | -122.51173 | 6990 ft | 264 kts | 228° |
| 2026-05-03 21:41 | 49.29396 | -122.53268 | 6980 ft | 264 kts | 228° |
| 2026-05-03 21:41 | 49.28162 | -122.55369 | 6986 ft | 264 kts | 229° |
| 2026-05-03 21:41 | 49.26933 | -122.57471 | 6778 ft | 265 kts | 228° |
| 2026-05-03 21:42 | 49.25705 | -122.59563 | 6449 ft | 263 kts | 228° |
| 2026-05-03 21:42 | 49.24504 | -122.61612 | 6146 ft | 261 kts | 228° |
| 2026-05-03 21:42 | 49.23294 | -122.63676 | 5848 ft | 259 kts | 228° |
| 2026-05-03 21:42 | 49.22337 | -122.65302 | 5611 ft | 257 kts | 228° |
| 2026-05-03 21:43 | 49.21151 | -122.67340 | 5317 ft | 255 kts | 230° |
| 2026-05-03 21:43 | 49.20125 | -122.69536 | 5003 ft | 252 kts | 238° |
| 2026-05-03 21:43 | 49.19208 | -122.71801 | 4705 ft | 250 kts | 238° |
| 2026-05-03 21:43 | 49.18300 | -122.74070 | 4399 ft | 249 kts | 238° |
| 2026-05-03 21:44 | 49.17396 | -122.76316 | 4066 ft | 248 kts | 238° |
| 2026-05-03 21:44 | 49.16515 | -122.78571 | 3731 ft | 246 kts | 242° |
| 2026-05-03 21:44 | 49.16102 | -122.81077 | 3507 ft | 243 kts | 269° |
| 2026-05-03 21:44 | 49.16266 | -122.83651 | 3494 ft | 244 kts | 281° |
| 2026-05-03 21:45 | 49.16601 | -122.86157 | 3467 ft | 232 kts | 282° |
| 2026-05-03 21:45 | 49.16911 | -122.88496 | 3451 ft | 218 kts | 281° |
| 2026-05-03 21:45 | 49.17171 | -122.90712 | 3364 ft | 206 kts | 279° |
| 2026-05-03 21:45 | 49.17404 | -122.92816 | 3097 ft | 202 kts | 279° |
| 2026-05-03 21:46 | 49.17646 | -122.94930 | 2778 ft | 199 kts | 280° |
| 2026-05-03 21:46 | 49.17879 | -122.96950 | 2502 ft | 187 kts | 280° |
| 2026-05-03 21:46 | 49.18094 | -122.98841 | 2257 ft | 173 kts | 280° |
| 2026-05-03 21:46 | 49.18293 | -123.00575 | 2033 ft | 159 kts | 280° |
| 2026-05-03 21:47 | 49.18476 | -123.02174 | 1827 ft | 146 kts | 280° |
| 2026-05-03 21:47 | 49.18643 | -123.03634 | 1643 ft | 133 kts | 280° |
| 2026-05-03 21:47 | 49.18801 | -123.05017 | 1484 ft | 132 kts | 279° |
| 2026-05-03 21:47 | 49.18956 | -123.06399 | 1296 ft | 132 kts | 279° |
| 2026-05-03 21:48 | 49.19112 | -123.07772 | 1125 ft | 131 kts | 281° |
| 2026-05-03 21:48 | 49.19272 | -123.09154 | 949 ft | 132 kts | 279° |
| 2026-05-03 21:48 | 49.19425 | -123.10515 | 760 ft | 127 kts | 279° |
| 2026-05-03 21:48 | 49.19575 | -123.11842 | 590 ft | 128 kts | 281° |
| 2026-05-03 21:49 | 49.19729 | -123.13200 | 391 ft | 130 kts | 282° |
| 2026-05-03 21:49 | 49.19881 | -123.14539 | 211 ft | 125 kts | 282° |
| 2026-05-03 21:49 | 49.20025 | -123.15800 | 83 ft | 118 kts | 282° |
| 2026-05-03 21:49 | 49.20164 | -123.16995 | 17 ft | 104 kts | 278° |
| 2026-05-03 21:50 | 49.20253 | -123.17756 | 14 ft | 43 kts | 280° |
| 2026-05-03 21:50 | 49.20304 | -123.18180 | 17 ft | 39 kts | 281° |
| 2026-05-03 21:50 | 49.20292 | -123.18493 | 17 ft | 27 kts | 255° |
| 2026-05-03 21:50 | 49.20238 | -123.18742 | 16 ft | 11 kts | 251° |
| 2026-05-03 21:51 | 49.20237 | -123.18747 | 16 ft | 0 kts | 251° |
| 2026-05-03 21:51 | 49.20233 | -123.18764 | 16 ft | 11 kts | 251° |
| 2026-05-03 21:51 | 49.20163 | -123.18839 | 16 ft | 13 kts | 149° |
| 2026-05-03 21:51 | 49.20145 | -123.18697 | 16 ft | 23 kts | 97° |
| 2026-05-03 21:52 | 49.20112 | -123.18388 | 16 ft | 28 kts | 99° |
| 2026-05-03 21:52 | 49.20076 | -123.18080 | 16 ft | 31 kts | 101° |
| 2026-05-03 21:52 | 49.20042 | -123.17789 | 16 ft | 29 kts | 99° |
| 2026-05-03 21:52 | 49.20008 | -123.17500 | 16 ft | 19 kts | 100° |
| 2026-05-03 21:53 | 49.19983 | -123.17284 | 16 ft | 22 kts | 100° |
| 2026-05-03 21:53 | 49.19928 | -123.17154 | 16 ft | 6 kts | 190° |
| 2026-05-03 21:53 | 49.19892 | -123.17176 | 16 ft | 7 kts | 198° |
| 2026-05-03 21:53 | 49.19834 | -123.17189 | 17 ft | 10 kts | 185° |
| 2026-05-03 21:54 | 49.19766 | -123.17206 | 16 ft | 6 kts | 211° |
| 2026-05-03 21:54 | 49.19764 | -123.17208 | 18 ft | 0 kts | 216° |
| 2026-05-03 21:54 | 49.19764 | -123.17212 | 17 ft | 1 kts | 230° |
| 2026-05-03 21:54 | 49.19767 | -123.17238 | 16 ft | 5 kts | 278° |
| 2026-05-03 21:55 | 49.19769 | -123.17263 | 16 ft | 0 kts | 272° |
| 2026-05-03 21:55 | 49.19769 | -123.17281 | 16 ft | 0 kts | 269° |
| 2026-05-03 21:55 | 49.19769 | -123.17282 | 16 ft | 0 kts | 270° |